createdAt,value
2023-10-27T00:01:25.104Z,9.23
2023-10-27T00:04:27.591Z,8.17
2023-10-27T00:07:32.795Z,9.63
2023-10-27T00:10:38.013Z,11.77
2023-10-27T00:13:40.099Z,31.77
2023-10-27T00:16:44.882Z,14.57
2023-10-27T00:19:48.575Z,16.07
2023-10-27T00:22:51.043Z,9.80
2023-10-27T00:25:53.372Z,8.18
2023-10-27T00:28:56.278Z,13.82
2023-10-27T00:31:59.297Z,25.17
2023-10-27T00:35:06.044Z,14.87
2023-10-27T00:38:08.631Z,10.50
2023-10-27T00:41:10.883Z,10.50
2023-10-27T00:44:13.807Z,9.23
2023-10-27T00:47:17.235Z,11.32
2023-10-27T00:50:20.056Z,19.67
2023-10-27T00:53:23.130Z,26.03
2023-10-27T00:56:28.906Z,25.65
2023-10-27T00:59:33.794Z,13.85
2023-10-27T01:02:36.390Z,8.10
2023-10-27T01:05:39.066Z,6.60
2023-10-27T01:08:41.909Z,6.17
2023-10-27T01:11:44.264Z,6.43
2023-10-27T01:14:46.790Z,6.80
2023-10-27T01:17:50.777Z,6.20
2023-10-27T01:20:56.554Z,7.20
2023-10-27T01:24:00.264Z,7.53
2023-10-27T01:27:06.727Z,7.22
2023-10-27T01:30:13.670Z,7.05
2023-10-27T01:33:16.075Z,7.00
2023-10-27T01:36:19.567Z,7.60
2023-10-27T01:39:23.338Z,7.70
2023-10-27T01:42:27.699Z,9.45
2023-10-27T01:45:31.727Z,7.82
2023-10-27T01:48:38.594Z,7.18
2023-10-27T01:51:40.915Z,6.83
2023-10-27T01:54:43.164Z,6.10
2023-10-27T01:57:47.060Z,6.30
2023-10-27T02:00:49.312Z,6.40
2023-10-27T02:03:52.347Z,5.95
2023-10-27T02:06:57.020Z,6.50
2023-10-27T02:10:00.818Z,6.13
2023-10-27T02:13:03.748Z,6.43
2023-10-27T02:16:12.649Z,5.78
2023-10-27T02:19:15.473Z,5.97
2023-10-27T02:22:22.524Z,5.90
2023-10-27T02:25:25.761Z,5.03
2023-10-27T02:28:29.252Z,6.10
2023-10-27T02:31:31.735Z,5.00
2023-10-27T02:34:38.617Z,7.30
2023-10-27T02:37:42.780Z,5.03
2023-10-27T02:40:46.987Z,4.60
2023-10-27T02:43:52.613Z,7.65
2023-10-27T02:46:54.994Z,5.10
2023-10-27T02:49:57.224Z,3.95
2023-10-27T02:53:04.748Z,6.33
2023-10-27T02:56:10.645Z,4.40
2023-10-27T02:59:16.183Z,4.60
2023-10-27T03:02:19.399Z,4.40
2023-10-27T03:05:23.054Z,4.05
2023-10-27T03:08:26.838Z,3.87
2023-10-27T03:11:28.920Z,4.37
2023-10-27T03:14:31.177Z,4.80
2023-10-27T03:17:36.340Z,6.85
2023-10-27T03:20:41.171Z,5.68
2023-10-27T03:23:45.011Z,3.40
2023-10-27T03:26:47.477Z,3.97
2023-10-27T03:29:49.993Z,3.40
2023-10-27T03:32:52.358Z,5.80
2023-10-27T03:35:55.328Z,10.65
2023-10-27T03:38:57.644Z,17.50
2023-10-27T03:42:02.210Z,21.00
2023-10-27T03:45:07.294Z,7.55
2023-10-27T03:48:11.233Z,5.50
2023-10-27T03:51:16.891Z,3.63
2023-10-27T03:54:22.513Z,9.87
2023-10-27T03:57:24.884Z,19.37
2023-10-27T04:00:27.711Z,16.02
2023-10-27T04:03:33.197Z,12.65
2023-10-27T04:06:35.398Z,6.90
2023-10-27T04:09:37.694Z,3.60
2023-10-27T04:12:40.359Z,3.33
2023-10-27T04:15:46.401Z,4.60
2023-10-27T04:18:53.214Z,11.20
2023-10-27T04:21:55.552Z,16.80
2023-10-27T04:24:58.238Z,12.90
2023-10-27T04:28:00.828Z,10.00
2023-10-27T04:31:06.468Z,8.38
2023-10-27T04:34:10.152Z,4.47
2023-10-27T04:37:14.044Z,5.00
2023-10-27T04:40:16.601Z,8.10
2023-10-27T04:43:23.697Z,6.43
2023-10-27T04:46:28.072Z,10.63
2023-10-27T04:49:30.577Z,7.63
2023-10-27T04:52:32.966Z,3.70
2023-10-27T04:55:38.390Z,2.83
2023-10-27T04:58:45.935Z,2.53
2023-10-27T05:01:51.885Z,7.80
2023-10-27T05:04:56.285Z,10.57
2023-10-27T05:08:01.162Z,10.02
2023-10-27T05:11:05.252Z,8.57
2023-10-27T05:14:12.104Z,5.70
2023-10-27T05:17:18.858Z,2.95
2023-10-27T05:20:23.799Z,2.58
2023-10-27T05:23:29.878Z,4.20
2023-10-27T05:26:33.415Z,4.50
2023-10-27T05:29:35.972Z,9.47
2023-10-27T05:32:38.418Z,6.53
2023-10-27T05:35:40.645Z,8.02
2023-10-27T05:38:49.860Z,3.65
2023-10-27T05:41:52.017Z,2.60
2023-10-27T05:44:54.578Z,2.47
2023-10-27T05:47:56.911Z,3.60
2023-10-27T05:50:58.988Z,6.43
2023-10-27T05:54:01.604Z,8.10
2023-10-27T05:57:09.882Z,9.07
2023-10-27T06:00:13.469Z,5.47
2023-10-27T06:03:19.885Z,4.40
2023-10-27T06:06:22.988Z,3.88
2023-10-27T06:10:15.537Z,3.50
2023-10-27T06:13:18.383Z,10.07
2023-10-27T06:16:26.308Z,11.73
2023-10-27T06:19:30.119Z,10.02
2023-10-27T06:22:46.559Z,9.63
2023-10-27T06:25:56.127Z,6.88
2023-10-27T06:29:10.555Z,4.97
2023-10-27T06:32:13.116Z,5.00
2023-10-27T06:35:18.962Z,9.07
2023-10-27T06:38:25.029Z,11.73
2023-10-27T06:41:32.008Z,13.95
2023-10-27T06:44:55.438Z,13.87
2023-10-27T06:48:06.242Z,7.63
2023-10-27T06:51:19.623Z,6.95
2023-10-27T06:54:26.667Z,5.50
2023-10-27T06:57:33.578Z,7.30
2023-10-27T07:00:37.159Z,7.57
2023-10-27T07:04:08.746Z,9.73
2023-10-27T07:07:38.238Z,8.00
2023-10-27T07:14:42.413Z,5.65
2023-10-27T07:17:59.009Z,5.63
2023-10-27T07:21:18.985Z,10.53
2023-10-27T07:24:25.154Z,10.70
2023-10-27T07:27:31.919Z,11.13
2023-10-27T07:30:35.619Z,9.43
2023-10-27T07:33:40.401Z,8.03
2023-10-27T07:36:47.228Z,5.37
2023-10-27T07:40:14.236Z,5.43
2023-10-27T07:47:46.620Z,6.30
2023-10-27T07:51:13.976Z,6.17
2023-10-27T07:55:05.571Z,7.50
2023-10-27T07:58:20.538Z,6.32
2023-10-27T08:02:12.390Z,3.60
2023-10-27T08:05:42.676Z,3.20
2023-10-27T08:09:01.131Z,6.37
2023-10-27T08:12:14.980Z,3.83
2023-10-27T08:15:53.947Z,3.97
2023-10-27T08:19:00.417Z,2.40
2023-10-27T08:22:10.031Z,3.13
2023-10-27T08:25:14.335Z,2.70
2023-10-27T08:28:32.946Z,3.37
2023-10-27T08:31:38.217Z,3.22
2023-10-27T08:35:03.169Z,3.03
2023-10-27T08:38:11.116Z,3.15
2023-10-27T08:41:20.994Z,3.27
2023-10-27T08:44:25.724Z,2.60
2023-10-27T08:47:33.390Z,3.50
2023-10-27T08:50:44.116Z,3.00
2023-10-27T08:53:59.572Z,3.72
2023-10-27T08:57:31.609Z,5.20
2023-10-27T09:00:54.388Z,4.43
2023-10-27T09:04:44.578Z,6.53
2023-10-27T09:08:08.319Z,3.80
2023-10-27T09:11:27.447Z,2.45
2023-10-27T09:14:41.384Z,2.23
2023-10-27T09:18:33.885Z,2.70
2023-10-27T09:26:00.520Z,3.00
2023-10-27T09:33:29.280Z,2.70
2023-10-27T09:36:35.567Z,2.30
2023-10-27T09:39:40.164Z,3.25
2023-10-27T09:42:54.308Z,2.40
2023-10-27T09:46:00.540Z,2.40
2023-10-27T09:49:18.130Z,2.40
2023-10-27T09:52:57.292Z,2.47
2023-10-27T09:56:26.929Z,2.30
2023-10-27T10:00:03.378Z,2.75
2023-10-27T10:20:08.083Z,2.67
2023-10-27T10:23:37.264Z,2.13
2023-10-27T10:27:09.481Z,3.03
2023-10-27T10:30:47.121Z,3.03
2023-10-27T10:37:28.628Z,2.58
2023-10-27T10:40:40.670Z,2.95
2023-10-27T10:43:45.232Z,3.63
2023-10-27T10:46:51.553Z,3.27
2023-10-27T10:50:08.079Z,3.25
2023-10-27T10:53:28.729Z,3.38
2023-10-27T10:57:23.929Z,3.25
2023-10-27T11:00:35.803Z,3.73
2023-10-27T11:03:38.687Z,3.60
2023-10-27T11:06:55.082Z,3.83
2023-10-27T11:16:02.746Z,4.22
2023-10-27T11:19:31.452Z,5.00
2023-10-27T11:26:59.538Z,7.00
2023-10-27T11:30:03.979Z,4.78
2023-10-27T11:33:10.581Z,5.35
2023-10-27T11:36:15.155Z,4.87
2023-10-27T11:39:38.760Z,4.73
2023-10-27T11:42:43.152Z,3.92
2023-10-27T11:45:48.475Z,3.75
2023-10-27T11:48:51.197Z,3.55
2023-10-27T11:51:57.307Z,3.30
2023-10-27T11:55:25.158Z,2.93
2023-10-27T11:58:29.471Z,2.88
2023-10-27T12:01:46.065Z,3.28
2023-10-27T12:04:49.003Z,2.60
2023-10-27T12:07:52.667Z,2.13
2023-10-27T12:10:58.402Z,1.50
2023-10-27T12:14:03.796Z,2.00
2023-10-27T12:17:16.600Z,1.77
2023-10-27T12:21:33.386Z,1.40
2023-10-27T12:26:03.603Z,1.03
2023-10-27T12:29:20.766Z,0.70
2023-10-27T12:32:55.877Z,1.25
2023-10-27T12:36:54.696Z,0.60
2023-10-27T12:39:57.777Z,0.65
2023-10-27T12:43:01.769Z,0.50
2023-10-27T12:46:06.484Z,0.43
2023-10-27T12:49:15.682Z,0.32
2023-10-27T12:52:20.122Z,0.50
2023-10-27T12:55:23.878Z,0.50
2023-10-27T12:58:27.339Z,0.50
2023-10-27T13:01:35.222Z,0.33
2023-10-27T13:04:38.402Z,0.30
2023-10-27T13:08:00.860Z,0.43
2023-10-27T13:11:07.750Z,0.60
2023-10-27T13:14:29.850Z,3.03
2023-10-27T13:17:33.397Z,0.37
2023-10-27T13:20:39.637Z,0.30
2023-10-27T13:23:45.925Z,0.30
2023-10-27T13:26:48.590Z,0.80
2023-10-27T13:29:58.730Z,0.50
2023-10-27T13:33:07.348Z,0.60
2023-10-27T13:36:12.750Z,0.50
2023-10-27T13:39:19.300Z,0.57
2023-10-27T13:42:26.143Z,1.05
2023-10-27T13:45:29.726Z,0.67
2023-10-27T13:48:35.303Z,0.70
2023-10-27T13:51:40.502Z,0.60
2023-10-27T13:54:52.053Z,0.63
2023-10-27T13:57:58.939Z,1.08
2023-10-27T14:01:05.813Z,1.07
2023-10-27T14:04:09.699Z,0.50
2023-10-27T14:07:13.322Z,1.05
2023-10-27T14:10:22.934Z,0.70
2023-10-27T14:13:27.600Z,0.75
2023-10-27T14:16:31.322Z,0.70
2023-10-27T14:19:37.185Z,0.70
2023-10-27T14:22:39.751Z,0.80
2023-10-27T14:25:43.404Z,0.70
2023-10-27T14:28:46.273Z,0.50
2023-10-27T14:31:50.195Z,0.70
2023-10-27T14:34:55.767Z,1.00
2023-10-27T14:38:01.839Z,0.80
2023-10-27T14:41:05.724Z,0.47
2023-10-27T14:44:08.591Z,0.60
2023-10-27T14:47:12.573Z,0.90
2023-10-27T14:50:20.177Z,0.80
2023-10-27T14:53:26.819Z,0.73
2023-10-27T14:56:35.649Z,0.90
2023-10-27T14:59:49.079Z,0.80
2023-10-27T15:03:04.045Z,0.63
2023-10-27T15:06:11.683Z,0.87
2023-10-27T15:09:16.072Z,0.80
2023-10-27T15:12:22.543Z,0.60
2023-10-27T15:15:30.630Z,0.80
2023-10-27T15:18:52.285Z,0.97
2023-10-27T15:21:55.393Z,0.67
2023-10-27T15:25:01.952Z,0.60
2023-10-27T15:28:04.733Z,0.68
2023-10-27T15:31:14.542Z,0.80
2023-10-27T15:34:24.172Z,0.90
2023-10-27T15:37:27.328Z,1.00
2023-10-27T15:40:38.796Z,0.82
2023-10-27T15:43:46.123Z,0.80
2023-10-27T15:46:48.993Z,0.70
2023-10-27T15:49:55.610Z,0.60
2023-10-27T15:53:06.453Z,0.80
2023-10-27T15:56:21.290Z,0.90
2023-10-27T15:59:28.449Z,0.60
2023-10-27T16:02:38.939Z,0.68
2023-10-27T16:05:57.426Z,0.70
2023-10-27T16:09:35.344Z,0.77
2023-10-27T16:12:38.707Z,0.80
2023-10-27T16:15:47.480Z,0.80
2023-10-27T16:19:09.952Z,0.80
2023-10-27T16:22:15.115Z,0.90
2023-10-27T16:25:23.135Z,0.70
2023-10-27T16:28:29.681Z,0.73
2023-10-27T16:31:39.887Z,0.70
2023-10-27T16:34:45.811Z,0.70
2023-10-27T16:37:53.573Z,1.20
2023-10-27T16:41:00.055Z,0.90
2023-10-27T16:44:02.852Z,0.80
2023-10-27T16:47:10.053Z,0.80
2023-10-27T16:50:22.192Z,0.88
2023-10-27T16:53:24.853Z,1.10
2023-10-27T16:56:28.584Z,0.93
2023-10-27T16:59:32.792Z,0.88
2023-10-27T17:02:38.826Z,0.60
2023-10-27T17:09:01.762Z,0.70
2023-10-27T17:12:07.298Z,1.00
2023-10-27T17:19:05.187Z,0.88
2023-10-27T17:22:22.498Z,0.75
2023-10-27T17:28:48.005Z,0.60
2023-10-27T17:32:02.220Z,0.90
2023-10-27T17:35:07.280Z,1.00
2023-10-27T17:38:24.015Z,0.65
2023-10-27T17:41:29.692Z,0.90
2023-10-27T17:44:36.763Z,0.80
2023-10-27T17:47:43.583Z,0.82
2023-10-27T17:50:50.388Z,0.80
2023-10-27T17:53:54.990Z,0.85
2023-10-27T17:56:58.338Z,1.13
2023-10-27T18:00:02.046Z,0.90
2023-10-27T18:03:07.690Z,1.10
2023-10-27T18:06:19.736Z,1.00
2023-10-27T18:09:22.426Z,1.48
2023-10-27T18:12:27.766Z,0.90
2023-10-27T18:15:32.836Z,0.73
2023-10-27T18:18:36.781Z,0.90
2023-10-27T18:21:47.423Z,1.00
2023-10-27T18:24:50.082Z,0.90
2023-10-27T18:27:52.577Z,0.93
2023-10-27T18:30:55.833Z,1.00
2023-10-27T18:33:58.908Z,0.98
2023-10-27T18:37:01.442Z,0.73
2023-10-27T18:40:04.094Z,0.70
2023-10-27T18:43:06.473Z,0.60
2023-10-27T18:46:11.613Z,0.90
2023-10-27T18:49:16.906Z,0.80
2023-10-27T18:52:22.786Z,0.80
2023-10-27T18:55:26.005Z,0.80
2023-10-27T18:58:31.991Z,0.70
2023-10-27T19:01:37.509Z,0.80
2023-10-27T19:04:57.324Z,0.75
2023-10-27T19:08:07.175Z,0.70
2023-10-27T19:11:11.891Z,0.60
2023-10-27T19:14:14.082Z,0.80
2023-10-27T19:25:36.146Z,1.20
2023-10-27T19:28:39.251Z,0.82
2023-10-27T19:31:49.362Z,1.00
2023-10-27T19:34:52.743Z,0.90
2023-10-27T19:37:56.298Z,0.90
2023-10-27T19:40:59.851Z,6.40
2023-10-27T19:44:05.148Z,1.73
2023-10-27T19:47:08.931Z,1.30
2023-10-27T19:50:11.786Z,1.53
2023-10-27T19:53:20.306Z,2.03
2023-10-27T19:56:47.485Z,1.77
2023-10-27T19:59:50.464Z,1.17
2023-10-27T20:02:56.685Z,0.80
2023-10-27T20:06:26.237Z,0.93
2023-10-27T20:09:41.165Z,0.80
2023-10-27T20:12:44.822Z,0.57
2023-10-27T20:15:54.452Z,0.70
2023-10-27T20:18:59.602Z,0.70
2023-10-27T20:22:06.221Z,0.43
2023-10-27T20:25:16.772Z,0.47
2023-10-27T20:28:20.394Z,2.13
2023-10-27T20:31:30.485Z,4.72
2023-10-27T20:34:58.038Z,6.30
2023-10-27T20:38:11.770Z,9.13
2023-10-27T20:41:17.612Z,3.65
2023-10-27T20:44:40.306Z,3.10
2023-10-27T20:47:51.075Z,1.73
2023-10-27T20:51:05.216Z,3.60
2023-10-27T20:54:28.867Z,3.53
2023-10-27T20:57:33.963Z,5.20
2023-10-27T21:00:41.013Z,3.30
2023-10-27T21:04:07.640Z,1.80
2023-10-27T21:07:12.897Z,3.20
2023-10-27T21:10:20.959Z,1.30
2023-10-27T21:13:40.189Z,0.80
2023-10-27T21:16:48.427Z,0.52
2023-10-27T21:19:51.924Z,0.45
2023-10-27T21:22:58.250Z,1.20
2023-10-27T21:26:07.125Z,0.73
2023-10-27T21:29:10.731Z,0.45
2023-10-27T21:32:20.269Z,0.82
2023-10-27T21:35:35.589Z,0.70
2023-10-27T21:38:44.094Z,0.70
2023-10-27T21:41:48.784Z,0.90
2023-10-27T21:44:53.213Z,3.38
2023-10-27T21:47:58.675Z,3.78
2023-10-27T21:51:08.491Z,2.70
2023-10-27T21:54:16.942Z,2.60
2023-10-27T21:57:22.424Z,3.90
2023-10-27T22:00:39.083Z,1.40
2023-10-27T22:03:41.956Z,1.85
2023-10-27T22:06:44.523Z,1.80
2023-10-27T22:09:47.641Z,4.77
2023-10-27T22:12:50.171Z,2.20
2023-10-27T22:15:53.452Z,3.63
2023-10-27T22:18:56.236Z,4.40
2023-10-27T22:21:59.081Z,5.70
2023-10-27T22:25:01.945Z,4.10
2023-10-27T22:28:16.392Z,3.80
2023-10-27T22:31:21.618Z,10.45
2023-10-27T22:34:25.293Z,7.38
2023-10-27T22:37:27.855Z,8.07
2023-10-27T22:40:30.941Z,10.23
2023-10-27T22:43:37.225Z,7.60
2023-10-27T22:46:39.779Z,5.00
2023-10-27T22:49:44.258Z,2.70
2023-10-27T22:52:46.906Z,6.18
2023-10-27T22:55:49.561Z,3.90
2023-10-27T22:58:53.428Z,3.50
2023-10-27T23:01:58.670Z,7.15
2023-10-27T23:05:01.196Z,9.18
2023-10-27T23:08:05.913Z,3.42
2023-10-27T23:11:12.142Z,2.10
2023-10-27T23:14:14.872Z,2.00
2023-10-27T23:17:19.209Z,1.50
2023-10-27T23:20:24.912Z,2.72
2023-10-27T23:23:28.225Z,2.90
2023-10-27T23:26:30.862Z,1.60
2023-10-27T23:29:34.749Z,1.27
2023-10-27T23:32:37.231Z,1.08
2023-10-27T23:35:42.834Z,1.15
2023-10-27T23:38:46.533Z,1.10
2023-10-27T23:41:50.430Z,1.10
2023-10-27T23:44:53.515Z,1.20
2023-10-27T23:48:00.786Z,0.80
2023-10-27T23:51:03.197Z,1.15
2023-10-27T23:54:06.419Z,1.60
2023-10-27T23:57:08.764Z,1.93
